Time;durP1;ratioP1;P1;durP2;ratioP2;P2;SDS_P1;SDS_P2;PMS_P1;PMS_P2;Temp;Humidity;BMP_temperature;BMP_pressure;BME280_temperature;BME280_humidity;BME280_pressure;Samples;Min_cycle;Max_cycle;Signal;HPM_P1;HPM_P2
2023/05/07 00:02:11;;;;;;;3.58;1.92;;;15.90;99.90;;;;;;5052258;28;20206;-66
2023/05/07 00:04:38;;;;;;;4.13;1.88;;;16.00;99.90;;;;;;5051883;28;20229;-66
2023/05/07 00:07:05;;;;;;;2.95;1.63;;;16.00;99.90;;;;;;5051757;28;20258;-66
2023/05/07 00:09:32;;;;;;;2.40;1.93;;;16.00;99.90;;;;;;5051705;28;20233;-66
2023/05/07 00:11:59;;;;;;;4.03;2.03;;;16.00;99.90;;;;;;5051702;28;20209;-65
2023/05/07 00:14:26;;;;;;;2.45;1.90;;;16.00;99.90;;;;;;5052296;28;20226;-64
2023/05/07 00:16:54;;;;;;;2.93;1.83;;;16.00;99.90;;;;;;5052280;28;20209;-64
2023/05/07 00:19:20;;;;;;;5.10;2.07;;;16.00;99.90;;;;;;5052039;28;20201;-65
2023/05/07 00:21:47;;;;;;;1.90;1.70;;;16.00;99.90;;;;;;5051796;28;20213;-64
2023/05/07 00:24:14;;;;;;;2.80;1.77;;;16.00;99.90;;;;;;5051809;28;20252;-65
2023/05/07 00:26:41;;;;;;;2.73;2.07;;;16.00;99.90;;;;;;5051573;28;20208;-65
2023/05/07 00:29:07;;;;;;;2.13;1.55;;;16.00;99.90;;;;;;5051443;28;20252;-64
2023/05/07 00:31:35;;;;;;;2.13;1.77;;;16.00;99.90;;;;;;5051490;28;20619;-64
2023/05/07 00:34:03;;;;;;;3.53;1.90;;;15.90;99.90;;;;;;5051830;28;20262;-64
2023/05/07 00:36:30;;;;;;;2.53;1.97;;;15.90;99.90;;;;;;5051971;28;20216;-64
2023/05/07 00:38:58;;;;;;;2.30;1.80;;;15.80;99.90;;;;;;5052576;28;20319;-64
2023/05/07 00:41:24;;;;;;;3.67;1.83;;;15.70;99.90;;;;;;5052528;28;20248;-64
2023/05/07 00:43:51;;;;;;;2.40;1.83;;;15.60;99.90;;;;;;5052819;28;20267;-64
2023/05/07 00:46:21;;;;;;;3.15;1.92;;;15.60;99.90;;;;;;5052702;28;20263;-65
2023/05/07 00:48:48;;;;;;;2.42;1.60;;;15.50;99.90;;;;;;5052674;28;20434;-64
2023/05/07 00:51:16;;;;;;;2.17;1.70;;;15.40;99.90;;;;;;5051508;28;20209;-65
2023/05/07 00:53:43;;;;;;;3.50;1.70;;;15.40;99.90;;;;;;5051538;28;20205;-65
2023/05/07 00:56:11;;;;;;;2.50;1.90;;;15.30;99.90;;;;;;5051512;28;20236;-64
2023/05/07 00:58:38;;;;;;;3.13;2.00;;;15.20;99.90;;;;;;5054185;28;20201;-64
2023/05/07 01:01:04;;;;;;;3.60;1.83;;;15.10;99.90;;;;;;5055946;28;20591;-66
2023/05/07 01:03:31;;;;;;;3.43;1.80;;;15.00;99.90;;;;;;5056001;28;20213;-65
2023/05/07 01:06:00;;;;;;;2.30;2.00;;;15.00;99.90;;;;;;5055787;28;20321;-65
2023/05/07 01:08:29;;;;;;;4.83;1.77;;;15.00;99.90;;;;;;5055802;28;20639;-65
2023/05/07 01:10:58;;;;;;;2.13;1.83;;;14.90;99.90;;;;;;5055617;28;20210;-65
2023/05/07 01:13:25;;;;;;;2.43;1.87;;;14.80;99.90;;;;;;5055578;28;20262;-64
2023/05/07 01:15:52;;;;;;;3.70;1.93;;;14.80;99.90;;;;;;5055146;28;20287;-65
2023/05/07 01:18:19;;;;;;;3.80;1.93;;;14.80;99.90;;;;;;5055066;28;20670;-64
2023/05/07 01:20:46;;;;;;;4.23;2.00;;;14.80;99.90;;;;;;5054736;28;20212;-65
2023/05/07 01:23:15;;;;;;;2.10;1.67;;;14.80;99.90;;;;;;5055336;28;20217;-65
2023/05/07 01:25:41;;;;;;;1.92;1.60;;;14.80;99.90;;;;;;5055254;28;20331;-65
2023/05/07 01:28:08;;;;;;;4.30;1.70;;;14.70;99.90;;;;;;5055067;28;20226;-66
2023/05/07 01:30:36;;;;;;;2.33;1.67;;;14.70;99.90;;;;;;5054994;28;20213;-66
2023/05/07 01:33:07;;;;;;;2.90;2.10;;;14.60;99.90;;;;;;5054665;28;20576;-65
2023/05/07 01:35:38;;;;;;;3.40;1.73;;;14.60;99.90;;;;;;5055008;28;20229;-65
2023/05/07 01:38:06;;;;;;;1.70;1.60;;;14.60;99.90;;;;;;5055120;28;20267;-66
2023/05/07 01:40:35;;;;;;;1.90;1.70;;;14.60;99.90;;;;;;5054996;28;20247;-66
2023/05/07 01:43:02;;;;;;;2.90;2.00;;;14.60;99.90;;;;;;5054709;28;20325;-66
2023/05/07 01:45:30;;;;;;;2.67;1.60;;;14.60;99.90;;;;;;5090718;22;20224;-59
2023/05/07 01:47:59;;;;;;;3.80;1.60;;;14.60;99.90;;;;;;5095860;28;20208;-59
2023/05/07 01:50:26;;;;;;;2.57;1.90;;;14.60;99.90;;;;;;5096115;28;20227;-58
2023/05/07 01:52:53;;;;;;;4.43;1.93;;;14.60;99.90;;;;;;5095722;28;20565;-58
2023/05/07 01:55:20;;;;;;;1.93;1.70;;;14.60;99.90;;;;;;5096101;28;20318;-58
2023/05/07 01:57:48;;;;;;;3.63;1.80;;;14.60;99.90;;;;;;5096425;28;20217;-60
2023/05/07 02:00:16;;;;;;;5.93;1.63;;;14.60;99.90;;;;;;5095781;28;20207;-58
2023/05/07 02:02:42;;;;;;;2.63;1.70;;;14.60;99.90;;;;;;5096317;28;20580;-59
2023/05/07 02:05:09;;;;;;;5.20;1.80;;;14.60;99.90;;;;;;5095705;28;20220;-58
2023/05/07 02:07:36;;;;;;;4.80;1.70;;;14.60;99.90;;;;;;5095871;28;20204;-59
2023/05/07 02:10:03;;;;;;;5.13;2.27;;;14.60;99.90;;;;;;5095155;28;20228;-59
2023/05/07 02:12:30;;;;;;;3.75;1.95;;;14.60;99.90;;;;;;5095323;28;20253;-58
2023/05/07 02:14:58;;;;;;;3.23;1.57;;;14.50;99.90;;;;;;5095310;28;20603;-58
2023/05/07 02:17:25;;;;;;;1.67;1.57;;;14.50;99.90;;;;;;5095736;28;20215;-58
2023/05/07 02:19:52;;;;;;;3.30;1.97;;;14.50;99.90;;;;;;5095645;28;20204;-59
2023/05/07 02:22:19;;;;;;;3.83;2.10;;;14.50;99.90;;;;;;5095654;28;20294;-58
2023/05/07 02:24:45;;;;;;;4.93;2.20;;;14.50;99.90;;;;;;5095612;28;20224;-58
2023/05/07 02:27:12;;;;;;;2.43;1.67;;;14.50;99.90;;;;;;5095569;28;20219;-58
2023/05/07 02:29:39;;;;;;;5.13;1.90;;;14.40;99.90;;;;;;5095000;28;20609;-58
2023/05/07 02:32:07;;;;;;;2.90;1.90;;;14.40;99.90;;;;;;5095395;28;20231;-58
2023/05/07 02:34:34;;;;;;;2.00;1.70;;;14.30;99.90;;;;;;5095294;28;20224;-57
2023/05/07 02:37:00;;;;;;;3.17;2.03;;;14.20;99.90;;;;;;5095775;28;20215;-58
2023/05/07 02:39:27;;;;;;;3.07;1.90;;;14.20;99.90;;;;;;5095232;28;20205;-57
2023/05/07 02:41:54;;;;;;;2.80;2.00;;;14.20;99.90;;;;;;5094748;28;20212;-58
2023/05/07 02:44:20;;;;;;;2.13;1.50;;;14.20;99.90;;;;;;5095074;28;20208;-58
2023/05/07 02:46:47;;;;;;;2.47;1.85;;;14.10;99.90;;;;;;5095266;28;20587;-57
2023/05/07 02:49:15;;;;;;;2.13;1.90;;;14.00;99.90;;;;;;5095086;28;20220;-58
2023/05/07 02:51:42;;;;;;;2.57;1.90;;;13.90;99.90;;;;;;5094887;28;20212;-58
2023/05/07 02:54:08;;;;;;;2.50;2.07;;;13.90;99.90;;;;;;5095124;28;20204;-58
2023/05/07 02:56:35;;;;;;;2.83;1.70;;;13.90;99.90;;;;;;5094515;28;20205;-59
2023/05/07 02:59:02;;;;;;;3.83;1.90;;;13.80;99.90;;;;;;5095158;28;20207;-59
2023/05/07 03:01:28;;;;;;;4.37;1.70;;;13.80;99.90;;;;;;5094615;28;20204;-59
2023/05/07 03:03:56;;;;;;;2.23;2.03;;;13.80;99.90;;;;;;5095110;28;20204;-60
2023/05/07 03:06:24;;;;;;;3.27;2.17;;;13.70;99.90;;;;;;5094895;28;20231;-58
2023/05/07 03:08:51;;;;;;;3.60;2.10;;;13.70;99.90;;;;;;5094806;28;20231;-58
2023/05/07 03:11:17;;;;;;;3.70;1.90;;;13.70;99.90;;;;;;5094750;28;20207;-58
2023/05/07 03:13:45;;;;;;;2.60;2.00;;;13.70;99.90;;;;;;5095399;28;20215;-58
2023/05/07 03:16:11;;;;;;;2.87;2.20;;;13.70;99.90;;;;;;5094879;28;20610;-59
2023/05/07 03:18:38;;;;;;;2.60;1.87;;;13.70;99.90;;;;;;5094835;28;20204;-58
2023/05/07 03:21:05;;;;;;;3.13;2.20;;;13.70;99.90;;;;;;5094527;28;20215;-58
2023/05/07 03:23:33;;;;;;;3.53;2.00;;;13.70;99.90;;;;;;5094812;28;20208;-58
2023/05/07 03:25:59;;;;;;;2.93;1.90;;;13.70;99.90;;;;;;5094362;28;20224;-58
2023/05/07 03:28:26;;;;;;;2.30;1.73;;;13.70;99.90;;;;;;5094496;28;20651;-58
2023/05/07 03:30:53;;;;;;;2.20;2.00;;;13.70;99.90;;;;;;5094445;28;20253;-58
2023/05/07 03:33:20;;;;;;;4.13;2.10;;;13.70;99.90;;;;;;5094058;28;20646;-58
2023/05/07 03:35:46;;;;;;;4.27;2.00;;;13.60;99.90;;;;;;5094254;28;20296;-58
2023/05/07 03:38:13;;;;;;;3.13;1.97;;;13.60;99.90;;;;;;5093984;28;20619;-58
2023/05/07 03:40:41;;;;;;;3.33;2.00;;;13.60;99.90;;;;;;5094408;28;20291;-59
2023/05/07 03:43:08;;;;;;;5.07;2.40;;;13.50;99.90;;;;;;5094104;28;20215;-59
2023/05/07 03:45:35;;;;;;;2.77;2.00;;;13.50;99.90;;;;;;5094024;28;20240;-58
2023/05/07 03:48:01;;;;;;;3.00;2.20;;;13.40;99.90;;;;;;5094045;28;20204;-59
2023/05/07 03:50:28;;;;;;;2.00;1.70;;;13.40;99.90;;;;;;5093733;28;20220;-59
2023/05/07 03:52:55;;;;;;;4.03;1.83;;;13.30;99.90;;;;;;5093796;28;20671;-59
2023/05/07 03:55:22;;;;;;;2.60;2.00;;;13.30;99.90;;;;;;5094191;28;20306;-59
2023/05/07 03:57:50;;;;;;;2.93;2.07;;;13.30;99.90;;;;;;5093673;28;20234;-59
2023/05/07 04:00:17;;;;;;;3.47;2.13;;;13.40;99.90;;;;;;5093721;28;20602;-58
2023/05/07 04:02:44;;;;;;;3.30;1.90;;;13.40;99.90;;;;;;5093876;28;20281;-59
2023/05/07 04:05:10;;;;;;;3.47;1.80;;;13.30;99.90;;;;;;5093409;28;20224;-68
2023/05/07 04:07:37;;;;;;;2.43;1.97;;;13.20;99.90;;;;;;5094258;28;20225;-59
2023/05/07 04:10:05;;;;;;;3.73;2.03;;;13.20;99.90;;;;;;5093522;28;20224;-59
2023/05/07 04:12:32;;;;;;;6.23;2.00;;;13.10;99.90;;;;;;5093808;28;20295;-59
2023/05/07 04:15:00;;;;;;;2.27;1.73;;;13.20;99.90;;;;;;5093402;28;20224;-58
2023/05/07 04:17:26;;;;;;;4.17;1.90;;;13.30;99.90;;;;;;5093317;28;20210;-59
2023/05/07 04:19:53;;;;;;;1.80;1.70;;;13.30;99.90;;;;;;5093136;28;20205;-58
2023/05/07 04:22:20;;;;;;;2.63;1.50;;;13.40;99.90;;;;;;5093418;28;20200;-59
2023/05/07 04:24:47;;;;;;;2.00;1.50;;;13.50;99.90;;;;;;5093204;28;20733;-59
2023/05/07 04:27:13;;;;;;;2.67;1.60;;;13.60;99.90;;;;;;5093436;28;20205;-58
2023/05/07 04:29:42;;;;;;;2.77;1.77;;;13.70;99.90;;;;;;5093115;28;20220;-58
2023/05/07 04:32:10;;;;;;;2.93;1.50;;;13.80;99.90;;;;;;5092542;28;20668;-59
2023/05/07 04:34:36;;;;;;;2.63;1.87;;;13.90;99.90;;;;;;5093040;28;20224;-59
2023/05/07 04:37:03;;;;;;;3.73;1.70;;;14.00;99.90;;;;;;5092620;28;20211;-59
2023/05/07 04:39:30;;;;;;;4.30;1.90;;;14.10;99.90;;;;;;5093193;28;20227;-58
2023/05/07 04:41:57;;;;;;;2.77;2.00;;;14.20;99.90;;;;;;5092704;28;20690;-59
2023/05/07 04:44:24;;;;;;;2.37;1.77;;;14.40;99.90;;;;;;5092968;28;20230;-59
2023/05/07 04:46:51;;;;;;;3.17;1.80;;;14.60;99.90;;;;;;5093235;28;20287;-60
2023/05/07 04:49:19;;;;;;;3.13;1.70;;;14.80;99.90;;;;;;5093253;28;20227;-58
2023/05/07 04:51:46;;;;;;;1.83;1.60;;;15.00;99.90;;;;;;5092861;28;20606;-57
2023/05/07 04:54:12;;;;;;;3.33;1.83;;;15.30;99.90;;;;;;5092330;28;20218;-58
2023/05/07 04:56:39;;;;;;;3.00;1.80;;;15.60;99.90;;;;;;5092273;28;20204;-57
2023/05/07 04:59:06;;;;;;;3.10;1.87;;;15.90;99.90;;;;;;5092413;28;20741;-57
2023/05/07 05:01:33;;;;;;;2.22;1.80;;;16.20;99.90;;;;;;5092273;28;20215;-57
2023/05/07 05:04:00;;;;;;;1.98;1.60;;;16.30;99.90;;;;;;5092535;28;20208;-57
2023/05/07 05:06:29;;;;;;;2.22;1.90;;;16.40;99.90;;;;;;5092439;28;20228;-58
2023/05/07 05:08:56;;;;;;;2.97;1.70;;;16.30;99.90;;;;;;5092391;28;20234;-59
2023/05/07 05:11:23;;;;;;;2.13;1.50;;;16.40;99.90;;;;;;5092065;28;20611;-58
2023/05/07 05:13:50;;;;;;;2.10;1.67;;;16.50;99.90;;;;;;5092331;28;20204;-57
2023/05/07 05:16:17;;;;;;;3.10;1.58;;;16.50;99.90;;;;;;5092046;28;20231;-58
2023/05/07 05:18:43;;;;;;;7.68;1.95;;;16.50;99.90;;;;;;5092240;28;20207;-58
2023/05/07 05:21:10;;;;;;;2.00;1.50;;;16.30;99.90;;;;;;5092130;28;20200;-57
2023/05/07 05:23:38;;;;;;;2.35;1.70;;;16.20;99.90;;;;;;5092286;28;20200;-57
2023/05/07 05:26:05;;;;;;;1.83;1.52;;;16.10;99.90;;;;;;5092080;28;20232;-57
2023/05/07 05:28:32;;;;;;;3.60;1.77;;;16.00;99.90;;;;;;5091988;28;20231;-57
2023/05/07 05:30:59;;;;;;;2.67;1.60;;;16.00;99.90;;;;;;5092082;28;20224;-57
2023/05/07 05:33:25;;;;;;;3.17;1.90;;;15.90;99.90;;;;;;5092009;28;20212;-57
2023/05/07 05:35:52;;;;;;;3.75;2.00;;;16.00;99.90;;;;;;5092238;28;20228;-57
2023/05/07 05:38:20;;;;;;;3.88;2.13;;;15.90;99.90;;;;;;5092870;28;20216;-67
2023/05/07 05:40:48;;;;;;;3.30;1.90;;;15.80;99.90;;;;;;5085602;28;20212;-58
2023/05/07 05:43:15;;;;;;;3.20;1.50;;;16.00;99.90;;;;;;5090892;28;20200;-61
2023/05/07 05:45:42;;;;;;;2.50;1.95;;;16.30;99.90;;;;;;5091921;28;20262;-59
2023/05/07 05:48:09;;;;;;;2.97;2.03;;;16.60;99.90;;;;;;5095302;28;20204;-62
2023/05/07 05:50:36;;;;;;;2.97;1.88;;;17.00;99.90;;;;;;5096392;28;20252;-60
2023/05/07 05:53:03;;;;;;;2.67;1.80;;;18.50;99.90;;;;;;5095836;28;20208;-61
2023/05/07 05:55:33;;;;;;;4.65;2.25;;;20.00;99.90;;;;;;5096143;28;20597;-60
2023/05/07 05:58:02;;;;;;;7.00;1.92;;;20.60;99.90;;;;;;5095678;28;20257;-59
2023/05/07 06:00:29;;;;;;;3.88;1.73;;;20.50;99.90;;;;;;5095757;28;20196;-59
2023/05/07 06:02:56;;;;;;;2.90;1.80;;;21.00;99.90;;;;;;5095051;28;20215;-58
2023/05/07 06:05:22;;;;;;;3.10;1.70;;;21.90;99.90;;;;;;5094944;28;20228;-59
2023/05/07 06:07:49;;;;;;;2.60;2.10;;;22.90;99.90;;;;;;5095378;28;20204;-58
2023/05/07 06:10:16;;;;;;;1.90;1.70;;;23.80;99.90;;;;;;5094755;28;20236;-60
2023/05/07 06:12:43;;;;;;;3.70;1.95;;;24.90;99.90;;;;;;5095029;28;20208;-59
2023/05/07 06:15:12;;;;;;;2.95;1.88;;;26.40;99.90;;;;;;5095021;28;20224;-62
2023/05/07 06:17:38;;;;;;;2.00;1.73;;;28.00;98.10;;;;;;5095147;28;20288;-59
2023/05/07 06:20:10;;;;;;;2.58;1.50;;;29.70;94.80;;;;;;5095083;28;20204;-60
2023/05/07 06:22:36;;;;;;;3.22;1.42;;;31.50;90.90;;;;;;5094592;28;20580;-59
2023/05/07 06:25:03;;;;;;;3.58;1.75;;;33.00;79.70;;;;;;5088498;28;20440;-62
2023/05/07 06:27:30;;;;;;;3.05;1.40;;;32.90;75.50;;;;;;5094369;28;20621;-64
2023/05/07 06:29:57;;;;;;;2.80;0.90;;;32.90;74.70;;;;;;5093563;28;20227;-62
2023/05/07 06:32:26;;;;;;;1.92;1.00;;;33.70;69.40;;;;;;5093415;28;20220;-62
2023/05/07 06:34:52;;;;;;;1.70;1.00;;;34.10;65.80;;;;;;5094223;28;20232;-62
2023/05/07 06:37:19;;;;;;;1.48;1.05;;;33.30;65.20;;;;;;5093509;28;20634;-62
2023/05/07 06:39:46;;;;;;;2.38;1.10;;;31.60;68.70;;;;;;5093876;28;20253;-62
2023/05/07 06:42:13;;;;;;;1.75;1.13;;;30.50;71.80;;;;;;5093561;28;20212;-63
2023/05/07 06:44:39;;;;;;;2.60;1.00;;;31.00;71.00;;;;;;5093218;28;20313;-62
2023/05/07 06:47:06;;;;;;;1.77;1.42;;;32.40;68.30;;;;;;5094068;28;20208;-64
2023/05/07 06:49:34;;;;;;;1.17;0.98;;;33.80;65.60;;;;;;5093022;28;20230;-63
2023/05/07 06:52:01;;;;;;;3.03;1.10;;;35.60;60.90;;;;;;5092974;28;20204;-63
2023/05/07 06:54:28;;;;;;;1.88;1.20;;;37.10;56.50;;;;;;5093330;28;20240;-62
2023/05/07 06:56:54;;;;;;;4.32;1.20;;;37.30;55.50;;;;;;5093034;28;20270;-62
2023/05/07 06:59:21;;;;;;;1.50;0.90;;;36.20;56.10;;;;;;5093220;28;20307;-61
2023/05/07 07:01:48;;;;;;;2.63;1.02;;;35.50;55.60;;;;;;5092408;28;20203;-62
2023/05/07 07:04:15;;;;;;;1.27;0.90;;;34.00;57.60;;;;;;5093103;28;20227;-61
2023/05/07 07:06:43;;;;;;;2.22;1.13;;;32.40;60.00;;;;;;5092801;28;20207;-61
2023/05/07 07:09:09;;;;;;;3.97;1.20;;;30.80;63.30;;;;;;5092983;28;20433;-62
2023/05/07 07:11:36;;;;;;;1.08;0.98;;;29.60;66.80;;;;;;5092838;28;20232;-62
2023/05/07 07:14:04;;;;;;;2.03;1.20;;;29.70;67.50;;;;;;5093269;28;20687;-61
2023/05/07 07:16:31;;;;;;;1.83;1.00;;;30.10;66.60;;;;;;5092807;28;20273;-61
2023/05/07 07:18:58;;;;;;;4.03;1.05;;;30.20;67.20;;;;;;5093008;28;20223;-60
2023/05/07 07:21:25;;;;;;;1.08;0.95;;;31.30;64.20;;;;;;5093200;28;20211;-60
2023/05/07 07:23:53;;;;;;;1.20;1.02;;;31.80;63.40;;;;;;5093894;28;20207;-61
2023/05/07 07:26:20;;;;;;;2.55;1.13;;;32.60;60.80;;;;;;5093429;28;20232;-59
2023/05/07 07:28:47;;;;;;;2.92;1.30;;;33.60;59.20;;;;;;5093722;28;20299;-59
2023/05/07 07:31:14;;;;;;;1.25;0.90;;;34.50;57.50;;;;;;5093498;28;20230;-59
2023/05/07 07:33:41;;;;;;;1.40;0.95;;;34.90;56.10;;;;;;5093286;28;20227;-59
2023/05/07 07:36:08;;;;;;;0.88;0.85;;;35.20;54.90;;;;;;5093424;28;20245;-60
2023/05/07 07:38:35;;;;;;;3.90;1.20;;;35.30;54.80;;;;;;5093537;28;20218;-60
2023/05/07 07:41:03;;;;;;;1.75;0.82;;;36.00;54.70;;;;;;5093100;28;20675;-61
2023/05/07 07:43:30;;;;;;;2.17;1.02;;;37.00;53.00;;;;;;5093054;28;20204;-60
2023/05/07 07:45:57;;;;;;;1.50;0.93;;;37.50;51.00;;;;;;5093536;28;20258;-60
2023/05/07 07:48:23;;;;;;;1.25;0.77;;;36.60;51.90;;;;;;5092875;28;20672;-60
2023/05/07 07:50:51;;;;;;;2.70;1.30;;;35.50;53.40;;;;;;5093204;28;20220;-60
2023/05/07 07:53:18;;;;;;;1.63;1.25;;;34.20;55.30;;;;;;5093029;28;20200;-59
2023/05/07 07:55:45;;;;;;;1.50;1.10;;;32.90;57.00;;;;;;5093033;28;20224;-60
2023/05/07 07:58:13;;;;;;;2.15;1.35;;;31.90;58.90;;;;;;5093030;28;20695;-59
2023/05/07 08:00:39;;;;;;;1.30;1.10;;;31.60;59.40;;;;;;5092944;28;20674;-60
2023/05/07 08:03:07;;;;;;;2.55;1.20;;;31.40;59.70;;;;;;5092865;28;20226;-60
2023/05/07 08:05:33;;;;;;;3.17;1.50;;;30.70;61.70;;;;;;5092897;28;20310;-60
2023/05/07 08:08:00;;;;;;;1.67;1.25;;;30.30;63.00;;;;;;5091945;28;20675;-60
2023/05/07 08:10:27;;;;;;;1.60;1.27;;;30.00;63.90;;;;;;5092578;28;20247;-60
2023/05/07 08:12:53;;;;;;;5.30;3.70;;;29.70;64.80;;;;;;5092588;28;20211;-60
2023/05/07 08:15:22;;;;;;;2.42;1.40;;;29.60;65.40;;;;;;5092645;28;20231;-60
2023/05/07 08:17:48;;;;;;;4.78;1.30;;;29.30;65.90;;;;;;5092722;28;20208;-60
2023/05/07 08:20:15;;;;;;;1.55;1.30;;;28.70;68.00;;;;;;5092824;28;20200;-60
2023/05/07 08:22:42;;;;;;;1.60;1.40;;;27.90;70.40;;;;;;5092771;28;20706;-60
2023/05/07 08:25:09;;;;;;;2.50;1.48;;;27.20;72.60;;;;;;5092669;28;20279;-60
2023/05/07 08:27:36;;;;;;;2.53;1.50;;;26.80;74.10;;;;;;5092716;28;20206;-59
2023/05/07 08:30:03;;;;;;;3.13;1.30;;;26.50;74.60;;;;;;5092850;28;20208;-60
2023/05/07 08:32:31;;;;;;;2.38;1.40;;;26.10;76.60;;;;;;5092928;28;20587;-60
2023/05/07 08:34:58;;;;;;;3.75;1.70;;;25.90;77.60;;;;;;5092896;28;20228;-59
2023/05/07 08:37:25;;;;;;;2.85;1.50;;;25.80;78.60;;;;;;5092539;28;20548;-59
2023/05/07 08:39:51;;;;;;;4.03;1.38;;;25.90;78.80;;;;;;5092771;28;20215;-59
2023/05/07 08:42:19;;;;;;;4.45;1.40;;;25.80;79.30;;;;;;5092414;28;20211;-58
2023/05/07 08:44:47;;;;;;;2.17;1.60;;;25.70;80.10;;;;;;5092563;28;20423;-60
2023/05/07 08:47:14;;;;;;;2.92;1.60;;;25.70;80.60;;;;;;5092819;28;20211;-59
2023/05/07 08:49:43;;;;;;;1.95;1.40;;;25.50;81.30;;;;;;5092639;28;20211;-59
2023/05/07 08:52:09;;;;;;;2.75;1.70;;;25.10;83.40;;;;;;5092629;28;20578;-60
2023/05/07 08:54:38;;;;;;;2.03;1.52;;;25.00;84.40;;;;;;5092141;28;20247;-59
2023/05/07 08:57:05;;;;;;;1.83;1.55;;;25.00;84.50;;;;;;5092285;28;20212;-60
2023/05/07 08:59:31;;;;;;;4.90;1.52;;;25.20;84.60;;;;;;5092623;28;20204;-65
2023/05/07 09:01:58;;;;;;;1.70;1.33;;;25.40;83.80;;;;;;5092436;28;20234;-61
2023/05/07 09:04:25;;;;;;;1.80;1.50;;;25.50;84.40;;;;;;5092786;28;20204;-59
2023/05/07 09:06:53;;;;;;;2.85;1.40;;;25.60;84.00;;;;;;5092773;28;20208;-60
2023/05/07 09:09:20;;;;;;;1.35;1.25;;;25.70;83.70;;;;;;5092493;28;20204;-60
2023/05/07 09:11:46;;;;;;;4.10;1.58;;;25.80;82.80;;;;;;5092169;28;20715;-61
2023/05/07 09:14:13;;;;;;;6.70;1.83;;;25.80;82.80;;;;;;5092381;28;20200;-60
2023/05/07 09:16:40;;;;;;;3.50;1.42;;;25.80;83.10;;;;;;5092371;28;20215;-61
2023/05/07 09:19:07;;;;;;;2.38;1.65;;;25.90;83.10;;;;;;5093814;28;20211;-61
2023/05/07 09:21:33;;;;;;;2.70;1.25;;;26.10;83.00;;;;;;5095992;28;20204;-60
2023/05/07 09:24:01;;;;;;;1.70;1.30;;;26.20;82.30;;;;;;5096242;28;20207;-61
2023/05/07 09:26:28;;;;;;;1.85;1.42;;;26.30;81.90;;;;;;5096267;28;20310;-61
2023/05/07 09:28:55;;;;;;;2.97;1.50;;;26.20;82.60;;;;;;5096494;28;20211;-62
2023/05/07 09:31:23;;;;;;;2.70;1.33;;;26.20;82.70;;;;;;5095810;28;20707;-59
2023/05/07 09:33:50;;;;;;;2.50;1.30;;;26.30;82.30;;;;;;5095791;28;20557;-61
2023/05/07 09:36:17;;;;;;;2.00;1.10;;;26.30;82.20;;;;;;5095714;28;20247;-60
2023/05/07 09:38:43;;;;;;;2.20;1.40;;;26.50;81.50;;;;;;5095729;28;20580;-60
2023/05/07 09:41:13;;;;;;;1.98;1.42;;;26.80;81.50;;;;;;5096220;28;20212;-60
2023/05/07 09:43:41;;;;;;;2.83;1.15;;;26.90;79.40;;;;;;5095861;28;20682;-60
2023/05/07 09:46:09;;;;;;;2.67;1.55;;;27.20;79.20;;;;;;5095703;28;20384;-60
2023/05/07 09:48:40;;;;;;;2.83;1.70;;;27.30;78.80;;;;;;5095665;28;20212;-60
2023/05/07 09:51:16;;;;;;;5.80;1.50;;;27.40;78.00;;;;;;5095543;28;20687;-61
2023/05/07 09:53:46;;;;;;;2.50;1.40;;;27.30;77.40;;;;;;5095727;28;20227;-61
2023/05/07 09:56:16;;;;;;;1.92;1.23;;;27.30;77.20;;;;;;5095975;28;20220;-61
2023/05/07 09:58:44;;;;;;;1.95;1.20;;;27.40;76.90;;;;;;5095825;28;20208;-60
2023/05/07 10:01:12;;;;;;;3.88;1.55;;;27.10;78.10;;;;;;5095619;28;20210;-60
2023/05/07 10:03:41;;;;;;;2.13;1.60;;;27.00;77.90;;;;;;5095201;28;20208;-61
2023/05/07 10:06:10;;;;;;;3.25;1.33;;;27.00;78.00;;;;;;5095666;28;20228;-60
2023/05/07 10:08:37;;;;;;;2.20;1.50;;;27.20;77.60;;;;;;5095828;28;20204;-61
2023/05/07 10:11:05;;;;;;;3.42;1.60;;;27.30;77.90;;;;;;5095124;28;20224;-59
2023/05/07 10:13:35;;;;;;;5.15;1.77;;;27.60;76.40;;;;;;5094867;28;20644;-61
2023/05/07 10:16:03;;;;;;;5.97;1.35;;;27.80;75.80;;;;;;5094860;28;20281;-61
2023/05/07 10:18:32;;;;;;;2.50;1.50;;;27.80;75.50;;;;;;5095350;28;20215;-61
2023/05/07 10:21:07;;;;;;;2.47;1.30;;;27.80;75.50;;;;;;5095223;28;20253;-60
2023/05/07 10:23:35;;;;;;;5.63;2.17;;;27.40;76.20;;;;;;5094999;28;20208;-61
2023/05/07 10:26:04;;;;;;;3.38;1.65;;;26.80;77.10;;;;;;5095316;28;20224;-61
2023/05/07 10:28:41;;;;;;;1.70;1.40;;;26.50;77.60;;;;;;5094693;28;20204;-61
2023/05/07 10:31:24;;;;;;;3.83;1.40;;;26.30;77.60;;;;;;5093986;28;20220;-61
2023/05/07 10:33:53;;;;;;;1.85;1.38;;;26.20;77.90;;;;;;5094555;28;20257;-61
2023/05/07 10:36:22;;;;;;;2.60;1.65;;;26.10;77.30;;;;;;5095067;28;20232;-60
2023/05/07 10:38:48;;;;;;;2.28;1.55;;;26.20;77.40;;;;;;5094839;28;20204;-61
2023/05/07 10:41:16;;;;;;;2.17;1.33;;;26.30;77.40;;;;;;5094697;28;20204;-61
2023/05/07 10:43:46;;;;;;;2.15;1.17;;;26.40;77.50;;;;;;5094741;28;20302;-61
2023/05/07 10:46:16;;;;;;;1.98;1.15;;;26.60;77.50;;;;;;5094382;28;20251;-60
2023/05/07 10:49:12;;;;;;;3.22;1.30;;;26.90;77.50;;;;;;5094405;28;20208;-62
2023/05/07 10:51:39;;;;;;;3.50;1.23;;;27.30;76.90;;;;;;5094675;28;20224;-60
2023/05/07 10:54:20;;;;;;;3.03;1.60;;;27.70;74.60;;;;;;5094820;28;20203;-60
2023/05/07 10:56:47;;;;;;;2.42;1.00;;;28.10;74.40;;;;;;5094500;28;20208;-60
2023/05/07 10:59:41;;;;;;;3.13;1.60;;;28.40;74.10;;;;;;5094742;28;20664;-59
2023/05/07 11:02:09;;;;;;;3.17;1.30;;;28.50;73.10;;;;;;5094012;28;20310;-60
2023/05/07 11:04:38;;;;;;;3.22;1.25;;;28.40;73.30;;;;;;5094354;28;20325;-61
2023/05/07 11:07:27;;;;;;;1.45;1.10;;;28.40;72.70;;;;;;5094227;28;20204;-61
2023/05/07 11:10:03;;;;;;;1.45;1.13;;;28.40;72.50;;;;;;5094401;28;20204;-60
2023/05/07 11:12:51;;;;;;;2.17;1.60;;;28.30;72.90;;;;;;5093907;28;20230;-60
2023/05/07 11:15:47;;;;;;;1.88;1.52;;;28.40;72.60;;;;;;5094206;28;20286;-63
2023/05/07 11:18:15;;;;;;;5.80;2.97;;;28.70;71.40;;;;;;5094224;28;20293;-60
2023/05/07 11:20:51;;;;;;;2.85;1.40;;;28.90;70.10;;;;;;5093809;28;20698;-60
2023/05/07 11:24:09;;;;;;;6.03;1.67;;;29.00;70.00;;;;;;5093753;28;20196;-61
2023/05/07 11:26:47;;;;;;;3.35;1.77;;;29.00;69.90;;;;;;5093853;28;20208;-60
2023/05/07 11:29:16;;;;;;;2.67;1.58;;;28.70;70.10;;;;;;5093574;28;20246;-60
2023/05/07 11:31:44;;;;;;;1.70;1.40;;;28.50;71.10;;;;;;5094067;28;20235;-62
2023/05/07 11:34:12;;;;;;;1.85;1.10;;;28.30;71.20;;;;;;5094156;28;20201;-62
2023/05/07 11:36:44;;;;;;;1.70;1.25;;;28.40;71.50;;;;;;5094013;28;20581;-62
2023/05/07 11:39:31;;;;;;;2.53;1.38;;;28.60;70.70;;;;;;5093649;28;20254;-62
2023/05/07 11:41:58;;;;;;;2.00;1.25;;;28.80;69.20;;;;;;5093320;28;20656;-61
2023/05/07 11:44:25;;;;;;;4.47;1.38;;;28.70;68.50;;;;;;5093444;28;20274;-60
2023/05/07 11:46:53;;;;;;;2.80;1.10;;;28.70;69.30;;;;;;5093532;28;20226;-60
2023/05/07 11:49:20;;;;;;;2.25;1.50;;;28.60;69.10;;;;;;5093723;28;20578;-60
2023/05/07 11:51:46;;;;;;;2.08;1.00;;;28.70;68.80;;;;;;5093096;28;20262;-61
2023/05/07 11:54:17;;;;;;;1.98;1.30;;;28.70;68.80;;;;;;5093336;28;20303;-61
2023/05/07 11:56:46;;;;;;;3.55;1.40;;;28.70;69.30;;;;;;5093644;28;20212;-61
2023/05/07 11:59:17;;;;;;;3.58;1.50;;;28.80;69.70;;;;;;5093720;28;20260;-61
2023/05/07 12:01:46;;;;;;;1.92;1.17;;;29.00;68.60;;;;;;5093368;28;20687;-61
2023/05/07 12:04:14;;;;;;;2.15;1.13;;;29.10;69.10;;;;;;5093814;28;20250;-60
2023/05/07 12:06:41;;;;;;;1.55;1.38;;;29.30;67.50;;;;;;5093526;28;20205;-60
2023/05/07 12:09:11;;;;;;;1.92;1.30;;;29.40;67.60;;;;;;5093777;28;20231;-61
2023/05/07 12:11:39;;;;;;;1.75;1.10;;;29.50;66.40;;;;;;5093634;28;20577;-61
2023/05/07 12:14:06;;;;;;;4.32;1.40;;;29.60;65.80;;;;;;5093128;28;20671;-61
2023/05/07 12:16:33;;;;;;;3.45;1.40;;;29.80;66.30;;;;;;5093283;28;20224;-61
2023/05/07 12:19:00;;;;;;;2.53;1.42;;;29.90;66.50;;;;;;5093160;28;20215;-60
2023/05/07 12:21:29;;;;;;;2.47;1.23;;;29.90;66.10;;;;;;5093145;28;20207;-61
2023/05/07 12:23:55;;;;;;;1.60;1.42;;;29.60;65.80;;;;;;5092516;28;20603;-59
2023/05/07 12:26:23;;;;;;;2.67;1.17;;;29.40;66.00;;;;;;5092976;28;20289;-61
2023/05/07 12:28:50;;;;;;;2.90;1.20;;;29.30;66.20;;;;;;5093195;28;20217;-61
2023/05/07 12:31:17;;;;;;;1.05;0.95;;;29.20;66.90;;;;;;5092584;28;20211;-61
2023/05/07 12:33:44;;;;;;;4.63;1.05;;;28.90;66.50;;;;;;5092558;28;20211;-61
2023/05/07 12:36:14;;;;;;;3.00;1.40;;;28.50;67.50;;;;;;5092854;28;20228;-62
2023/05/07 12:38:42;;;;;;;2.22;1.02;;;28.10;67.60;;;;;;5092969;28;20204;-62
2023/05/07 12:41:13;;;;;;;1.92;1.10;;;27.80;67.60;;;;;;5092812;28;20200;-61
2023/05/07 12:43:39;;;;;;;3.08;1.42;;;27.60;67.30;;;;;;5092721;28;20273;-62
2023/05/07 12:46:07;;;;;;;9.13;6.18;;;27.60;67.60;;;;;;5092584;28;20326;-62
2023/05/07 12:48:36;;;;;;;2.47;1.17;;;27.60;67.90;;;;;;5092552;28;20661;-62
2023/05/07 12:51:03;;;;;;;1.67;1.30;;;27.60;68.30;;;;;;5093104;28;20204;-62
2023/05/07 12:53:31;;;;;;;3.28;1.58;;;27.50;68.90;;;;;;5094138;28;20219;-63